CYGE

Golden Airport

Golden, British Columbia, Canada
METAR CYGE 151900Z 00000KT 20SM -SN FEW015 SCT075 BKN095 M04/M06 A3004 RMK SC1AC3AC3 SLP215
Observed Flight Rules
Dec-15 @ 19:00 UTC (38 minutes ago) Visual Flight Rules
Wind Visibility Clouds Conditions
Calm 20 miles
  • Few at 1,500' AGL
  • Scattered at 7,500' AGL
  • Broken at 9,500' AGL
  • Light Snow
Temperatures Readings
Current -4°C / 25°F
Dewpoint -6°C / 21°F
Humidity 86%
Altimeter 30.04" Hg
Pressure 1021.5 hPa
Elevation 785
METAR CYGE 151900Z 00000KT 20SM -SN FEW015 SCT075 BKN095 M04/M06 A3004 RMK SC1AC3AC3 SLP215
Observed Flight Rules
Dec-15 @ 19:00 UTC
(38 minutes ago)
VFR
Wind Visibility
Calm 20 miles
Clouds
  • Few at 1,500' AGL
  • Scattered at 7,500' AGL
  • Broken at 9,500' AGL
Conditions
  • Light Snow
Temperature Dewpoint
-4°C / 25°F -6°C / 21°F
Humidity Altimeter Pressure
86% 30.04" Hg 1021.5 hPa